Flight Track Log - Related Links

Times and Time Zones

All times are in EDT time to prevent confusion due to time zone crossing. See the N960DL flight status page for this flight to view local times or setup timezone preferences in your user account.


Time Position Orientation Groundspeed Altitude Reporting Facility
EDT Latitude Longitude Course Direction KTS MPH feet Rate Location/Type
Fri 03:20:03 PM 33.6536 -84.4856 320° Northwest 436 502 2,900  Level Atlanta Center
Fri 03:21:03 PM 33.6847 -84.5556 298° West 324 373 5,300 2,350 Climbing Atlanta Center
Fri 03:22:03 PM 33.7408 -84.5883 334° Northwest 271 312 7,600 2,350 Climbing Atlanta Center
Fri 03:23:03 PM 33.8222 -84.5814 North 317 365 10,000 1,850 Climbing Atlanta Center
Fri 03:24:03 PM 33.9119 -84.5819 360° North 311 358 11,300 1,300 Climbing Atlanta Center
Fri 03:25:00 PM 34.0806 -84.4139 320° Northwest  Level FlightAware Approximate
Fri 03:25:03 PM 34.0247 -84.5878 358° North 342 394 12,600  Level Atlanta Center
Fri 03:26:03 PM 34.1375 -84.5933 358° North 385 443 14,700 2,041 Climbing Atlanta Center
Fri 03:29:04 PM 34.4983 -84.6461 353° North 427 491 20,800 1,975 Climbing Atlanta Center
Fri 03:30:03 PM 34.6192 -84.6800 347° North 437 503 22,600 1,462 Climbing Atlanta Center
Fri 03:31:03 PM 34.7419 -84.7136 347° North 442 509 23,700 1,400 Climbing Atlanta Center
Fri 03:32:03 PM 34.8733 -84.7450 349° North 457 526 25,400 1,550 Climbing Atlanta Center
Fri 03:33:03 PM 35.0025 -84.7767 349° North 470 541 26,800 1,600 Climbing Atlanta Center
Fri 03:34:03 PM 35.1317 -84.8083 349° North 470 541 28,600 1,537 Climbing Atlanta Center
Fri 03:35:04 PM 35.2589 -84.8400 349° North 464 534 29,900 1,250 Climbing Atlanta Center
Fri 03:36:03 PM 35.3839 -84.8692 349° North 464 534 31,100 1,140 Climbing Atlanta Center
Fri 03:37:05 PM 35.5086 -84.9011 348° North 464 534 32,200 955 Climbing Atlanta Center
Fri 03:38:15 PM 35.6608 -84.9383 349° North 459 528 33,200 738 Climbing Atlanta Center
Fri 03:39:15 PM 35.7814 -84.9731 347° North 453 521 33,800 400 Climbing Atlanta Center
Fri 03:40:15 PM 35.9064 -85.0000 350° North 453 521 34,000 59 Climbing Atlanta Center
Fri 03:42:37 PM 36.1642 -85.1194 339° North 430 495 34,000  Level Indianapolis Center
Fri 03:43:39 PM 36.2794 -85.1681 341° North 437 503 34,000  Level Indianapolis Center
Fri 03:44:41 PM 36.3981 -85.2181 341° North 446 513 34,000  Level Indianapolis Center
Fri 03:45:43 PM 36.5394 -85.2750 342° North 445 512 34,000  Level Indianapolis Center
Fri 03:46:45 PM 36.6692 -85.2964 352° North 468 539 34,000  Level Indianapolis Center
Fri 03:47:47 PM 36.7950 -85.3175 352° North 458 527 34,000  Level Indianapolis Center
Fri 03:48:49 PM 36.9222 -85.3392 352° North 460 529 34,000  Level Indianapolis Center
Fri 03:49:51 PM 37.0514 -85.3600 353° North 463 533 34,000  Level Indianapolis Center
Fri 03:50:53 PM 37.1783 -85.3889 350° North 464 534 34,000  Level Indianapolis Center
Fri 03:51:55 PM 37.3125 -85.4536 339° North 443 510 34,000  Level Indianapolis Center
Fri 03:52:57 PM 37.4258 -85.5078 339° North 435 501 34,000  Level Indianapolis Center
Fri 03:53:59 PM 37.5358 -85.5617 339° North 436 502 34,000  Level Indianapolis Center
Fri 03:55:01 PM 37.6486 -85.6139 340° North 430 495 34,000  Level Indianapolis Center
Fri 03:56:03 PM 37.7633 -85.6697 339° North 438 504 34,000  Level Indianapolis Center
Fri 03:57:06 PM 37.8778 -85.7250 339° North 439 505 34,000  Level Indianapolis Center
Fri 03:58:08 PM 38.0169 -85.7914 339° North 444 511 34,000  Level Indianapolis Center
Fri 03:59:10 PM 38.1319 -85.8456 340° North 442 509 34,000  Level Indianapolis Center
Fri 04:00:12 PM 38.2472 -85.9017 339° North 444 511 34,000  Level Indianapolis Center
Fri 04:01:14 PM 38.3611 -85.9567 339° North 439 505 34,000  Level Indianapolis Center
Fri 04:02:16 PM 38.4761 -86.0119 339° North 441 507 34,000  Level Indianapolis Center
Fri 04:03:18 PM 38.5892 -86.0672 339° North 436 502 34,000  Level Indianapolis Center
Fri 04:04:20 PM 38.7239 -86.1333 339° North 433 498 34,000  Level Indianapolis Center
Fri 04:05:22 PM 38.8353 -86.1883 339° North 429 494 34,000  Level Indianapolis Center
Fri 04:06:24 PM 38.9472 -86.2450 339° North 431 496 34,000  Level Indianapolis Center
Fri 04:07:26 PM 39.0592 -86.3017 339° North 432 497 34,000  Level Indianapolis Center
Fri 04:08:28 PM 39.1733 -86.3581 339° North 438 504 34,000  Level Indianapolis Center
Fri 04:09:30 PM 39.2872 -86.4153 339° North 438 504 34,000  Level Indianapolis Center
Fri 04:10:32 PM 39.4022 -86.4719 339° North 441 507 34,000  Level Indianapolis Center
Fri 04:11:34 PM 39.5406 -86.5406 339° North 443 510 34,000  Level Indianapolis Center
Fri 04:12:36 PM 39.6547 -86.5992 338° Northwest 440 506 34,000  Level Indianapolis Center
Fri 04:13:39 PM 39.7692 -86.6575 339° North 439 505 34,000  Level Indianapolis Center
Fri 04:14:41 PM 39.8831 -86.7158 339° North 439 505 34,000  Level Indianapolis Center
Fri 04:15:43 PM 39.9958 -86.7728 339° North 435 501 34,000  Level Indianapolis Center
Fri 04:16:45 PM 40.1083 -86.8317 338° Northwest 435 501 34,000  Level Indianapolis Center
Fri 04:17:31 PM 40.1956 -86.8794 337° Northwest 430 495 34,000  Level Chicago Center
Fri 04:18:33 PM 40.3081 -86.9364 339° North 433 498 34,000  Level Chicago Center
Fri 04:19:35 PM 40.4428 -87.0081 338° Northwest 436 502 34,000  Level Chicago Center
Fri 04:20:37 PM 40.5556 -87.0656 339° North 438 504 34,000 -48 Level Chicago Center
Fri 04:21:39 PM 40.6844 -87.0850 353° North 468 539 33,900 -532 Descending Chicago Center
Fri 04:22:41 PM 40.8122 -87.0992 355° North 464 534 32,900 -672 Descending Chicago Center
Fri 04:23:44 PM 40.9364 -87.1142 355° North 457 526 32,500 -432 Descending Chicago Center
Fri 04:24:46 PM 41.0828 -87.1339 354° North 447 514 32,000 -242 Descending Chicago Center
Fri 04:25:48 PM 41.2069 -87.1500 354° North 449 517 32,000 -387 Level Chicago Center
Fri 04:26:50 PM 41.3289 -87.1669 354° North 447 514 31,200 -919 Descending Chicago Center
Fri 04:27:52 PM 41.4508 -87.1825 355° North 446 513 30,100 -1,210 Descending Chicago Center
Fri 04:28:54 PM 41.5708 -87.1992 354° North 442 509 28,700 -1,887 Descending Chicago Center
Fri 04:29:56 PM 41.7181 -87.2186 354° North 446 513 26,200 -1,694 Descending Chicago Center
Fri 04:30:58 PM 41.8431 -87.2347 355° North 452 520 25,200 -1,016 Descending Chicago Center
Fri 04:32:00 PM 41.9622 -87.2508 354° North 439 505 24,100 -1,113 Descending Chicago Center
Fri 04:33:02 PM 42.0778 -87.2653 355° North 421 484 22,900 -1,500 Descending Chicago Center
Fri 04:34:04 PM 42.2131 -87.2833 354° North 410 472 21,000 -1,935 Descending Chicago Center
Fri 04:35:06 PM 42.3236 -87.2969 355° North 403 464 18,900 -2,208 Descending Chicago Center
Fri 04:36:09 PM 42.4300 -87.3128 354° North 389 448 16,400 -2,544 Descending Chicago Center
Fri 04:37:11 PM 42.5394 -87.3258 355° North 371 427 13,600 -2,516 Descending Chicago Center
Fri 04:38:13 PM 42.6367 -87.3397 354° North 354 407 11,200 -1,699 Descending Chicago Center
Fri 04:40:04 PM 42.7833 -87.4167 339° North 256 295 8,700 -1,509 Descending Milwaukee TRACON
Fri 04:41:04 PM 42.8500 -87.4500 340° North 260 299 6,900 -1,760 Descending Milwaukee TRACON
Fri 04:41:19 PM 42.8497 -87.4619 268° West 260 299 6,500 -2,026 Descending Chicago Center
Fri 04:42:21 PM 42.9244 -87.5108 334° Northwest 255 293 4,300 -1,645 Descending Chicago Center
Fri 04:43:23 PM 42.9875 -87.5536 334° Northwest 256 295 3,100 -871 Descending Chicago Center
Fri 04:44:25 PM 43.0086 -87.6214 293° West 213 245 2,500 -290 Descending Chicago Center
Fri 04:45:27 PM 42.9939 -87.6925 254° West 194 223 2,500 -48 Level Chicago Center
Fri 04:46:29 PM 42.9772 -87.7631 252° West 195 224 2,400 -387 Descending Chicago Center
Fri 04:47:31 PM 42.9606 -87.8244 250° West 185 213 1,700 -677 Descending Chicago Center
Fri 04:50:00 PM 42.9333 -87.8833 289° West  Level FlightAware Approximate

Login

Don't have an account? Register now (free) for customized features, flight alerts, and more!